createdAt,value
2022-10-13T00:00:54.233Z,1023.46
2022-10-13T00:11:01.212Z,1023.33
2022-10-13T00:21:08.497Z,1023.30
2022-10-13T00:31:14.817Z,1023.26
2022-10-13T00:41:21.106Z,1023.21
2022-10-13T00:51:27.990Z,1023.19
2022-10-13T01:01:33.969Z,1023.17
2022-10-13T01:11:39.949Z,1023.19
2022-10-13T01:21:46.267Z,1023.16
2022-10-13T01:31:53.226Z,1023.04
2022-10-13T01:41:59.240Z,1022.99
2022-10-13T01:52:06.211Z,1022.86
2022-10-13T02:02:12.393Z,1022.77
2022-10-13T02:12:19.142Z,1022.71
2022-10-13T02:22:26.547Z,1022.59
2022-10-13T02:32:33.264Z,1022.50
2022-10-13T02:42:39.642Z,1022.53
2022-10-13T02:52:46.593Z,1022.28
2022-10-13T03:02:53.377Z,1022.28
2022-10-13T03:13:00.109Z,1022.20
2022-10-13T03:23:07.231Z,1022.18
2022-10-13T03:33:14.619Z,1022.13
2022-10-13T03:43:21.543Z,1022.09
2022-10-13T03:53:28.402Z,1022.07
2022-10-13T04:03:35.000Z,1021.99
2022-10-13T04:13:43.200Z,1021.98
2022-10-13T04:23:50.038Z,1021.96
2022-10-13T04:33:56.433Z,1021.79
2022-10-13T04:44:03.308Z,1021.82
2022-10-13T04:54:09.864Z,1021.80
2022-10-13T05:04:16.093Z,1021.62
2022-10-13T05:14:23.084Z,1021.62
2022-10-13T05:24:29.489Z,1021.61
2022-10-13T05:34:35.729Z,1021.50
2022-10-13T05:44:42.808Z,1021.52
2022-10-13T05:54:49.034Z,1021.44
2022-10-13T06:04:55.802Z,1021.41
2022-10-13T06:15:02.615Z,1021.46
2022-10-13T06:25:08.823Z,1021.47
2022-10-13T06:35:15.604Z,1021.46
2022-10-13T06:45:22.590Z,1021.51
2022-10-13T06:55:29.743Z,1021.53
2022-10-13T07:05:36.616Z,1021.48
2022-10-13T07:15:42.913Z,1021.38
2022-10-13T07:25:50.091Z,1021.34
2022-10-13T07:35:56.964Z,1021.29
2022-10-13T07:46:03.692Z,1021.12
2022-10-13T07:56:10.790Z,1021.13
2022-10-13T08:06:18.032Z,1021.12
2022-10-13T08:16:25.113Z,1020.94
2022-10-13T08:26:32.052Z,1020.93
2022-10-13T08:36:38.785Z,1020.85
2022-10-13T08:46:45.734Z,1020.70
2022-10-13T08:56:53.059Z,1020.75
2022-10-13T09:06:59.440Z,1020.79
2022-10-13T09:17:06.696Z,1020.61
2022-10-13T09:27:13.158Z,1020.64
2022-10-13T09:37:19.871Z,1020.58
2022-10-13T09:47:26.829Z,1020.54
2022-10-13T09:57:33.689Z,1020.52
2022-10-13T10:07:40.237Z,1020.56
2022-10-13T10:17:47.277Z,1020.60
2022-10-13T10:27:54.102Z,1020.50
2022-10-13T10:38:00.338Z,1020.34
2022-10-13T10:48:07.303Z,1020.28
2022-10-13T10:58:13.565Z,1020.10
2022-10-13T11:08:20.642Z,1019.99
2022-10-13T11:18:27.647Z,1019.83
2022-10-13T11:28:34.378Z,1019.78
2022-10-13T11:38:41.015Z,1019.69
2022-10-13T11:48:48.040Z,1019.56
2022-10-13T11:58:54.997Z,1019.47
2022-10-13T12:09:01.896Z,1019.19
2022-10-13T12:19:08.340Z,1019.15
2022-10-13T12:29:14.725Z,1019.06
2022-10-13T12:39:21.432Z,1019.15
2022-10-13T12:49:28.134Z,1019.18
2022-10-13T12:59:35.134Z,1019.13
2022-10-13T13:09:42.088Z,1019.12
2022-10-13T13:19:49.114Z,1019.14
2022-10-13T13:29:55.567Z,1019.14
2022-10-13T13:40:01.748Z,1019.06
2022-10-13T13:50:08.702Z,1018.98
2022-10-13T14:00:15.110Z,1018.92
2022-10-13T14:10:21.838Z,1018.86
2022-10-13T14:20:28.987Z,1018.63
2022-10-13T14:30:36.242Z,1018.57
2022-10-13T14:40:43.106Z,1018.64
2022-10-13T14:50:49.500Z,1018.61
2022-10-13T15:00:55.757Z,1018.59
2022-10-13T15:11:02.314Z,1018.56
2022-10-13T15:21:08.900Z,1018.50
2022-10-13T15:31:15.957Z,1018.46
2022-10-13T15:41:22.881Z,1018.47
2022-10-13T15:51:29.674Z,1018.43
2022-10-13T16:01:36.361Z,1018.45
2022-10-13T16:11:43.379Z,1018.52
2022-10-13T16:21:49.975Z,1018.46
2022-10-13T16:31:56.805Z,1018.53
2022-10-13T16:42:03.915Z,1018.47
2022-10-13T16:52:11.264Z,1018.45
2022-10-13T17:02:18.961Z,1018.40
2022-10-13T17:12:26.240Z,1018.43
2022-10-13T17:22:33.197Z,1018.45
2022-10-13T17:32:39.684Z,1018.39
2022-10-13T17:42:45.854Z,1018.34
2022-10-13T17:52:51.887Z,1018.39
2022-10-13T18:02:57.892Z,1018.30
2022-10-13T18:13:03.704Z,1018.28
2022-10-13T18:23:09.986Z,1018.35
2022-10-13T18:33:16.325Z,1018.29
2022-10-13T18:43:22.569Z,1018.17
2022-10-13T18:53:28.627Z,1018.19
2022-10-13T19:03:34.899Z,1018.13
2022-10-13T19:13:41.644Z,1018.04
2022-10-13T19:23:48.781Z,1018.07
2022-10-13T19:33:54.891Z,1018.01
2022-10-13T19:44:01.347Z,1017.98
2022-10-13T19:54:07.187Z,1017.95
2022-10-13T20:04:13.881Z,1017.94
2022-10-13T20:14:20.300Z,1018.01
2022-10-13T20:24:27.353Z,1018.05
2022-10-13T20:34:35.425Z,1018.00
2022-10-13T20:44:42.473Z,1017.94
2022-10-13T20:54:49.381Z,1017.94
2022-10-13T21:04:56.464Z,1017.91
2022-10-13T21:15:02.320Z,1017.93
2022-10-13T21:25:08.740Z,1017.94
2022-10-13T21:35:15.671Z,1017.88
2022-10-13T21:45:22.785Z,1017.92
2022-10-13T21:56:49.154Z,1017.91
2022-10-13T22:06:55.004Z,1018.03
2022-10-13T22:17:02.074Z,1018.01
2022-10-13T22:27:08.900Z,1017.96
2022-10-13T22:37:15.506Z,1017.97
2022-10-13T22:47:22.928Z,1017.93
2022-10-13T22:57:29.979Z,1017.88
2022-10-13T23:07:37.064Z,1017.76
2022-10-13T23:17:43.490Z,1017.74
2022-10-13T23:27:50.586Z,1017.72
2022-10-13T23:37:58.095Z,1017.64
2022-10-13T23:48:04.955Z,1017.64
2022-10-13T23:58:11.957Z,1017.58
